createdAt,value
2023-05-14T00:03:36.394Z,25.5
2023-05-14T00:09:06.741Z,25.5
2023-05-14T00:14:37.187Z,25.5
2023-05-14T00:20:06.696Z,25.5
2023-05-14T00:25:37.172Z,25.5
2023-05-14T00:31:07.727Z,25.5
2023-05-14T00:36:37.155Z,25.5
2023-05-14T00:42:07.605Z,25.5
2023-05-14T00:47:38.145Z,25.5
2023-05-14T00:53:07.568Z,25.5
2023-05-14T00:58:38.056Z,25.4
2023-05-14T01:04:07.690Z,25.5
2023-05-14T01:09:38.029Z,25.5
2023-05-14T01:15:08.486Z,25.4
2023-05-14T01:20:37.972Z,25.5
2023-05-14T01:26:08.454Z,25.5
2023-05-14T01:31:39.050Z,25.4
2023-05-14T01:37:08.428Z,25.5
2023-05-14T01:42:38.891Z,25.4
2023-05-14T01:48:09.409Z,25.4
2023-05-14T01:53:38.854Z,25.4
2023-05-14T01:59:09.320Z,25.4
2023-05-14T02:04:39.808Z,25.4
2023-05-14T02:10:09.322Z,25.4
2023-05-14T02:15:39.794Z,25.4
2023-05-14T02:32:10.264Z,25.4
2023-05-14T02:37:40.690Z,25.4
2023-05-14T02:43:11.160Z,25.4
2023-05-14T02:48:40.659Z,25.4
2023-05-14T02:59:41.581Z,25.3
2023-05-14T03:05:11.095Z,25.4
2023-05-14T03:10:41.552Z,25.4
2023-05-14T03:16:11.056Z,25.3
2023-05-14T03:21:41.525Z,25.3
2023-05-14T03:27:12.011Z,25.3
2023-05-14T03:32:41.539Z,25.3
2023-05-14T03:38:11.962Z,25.3
2023-05-14T03:43:42.440Z,25.3
2023-05-14T03:49:11.966Z,25.3
2023-05-14T03:54:42.662Z,25.3
2023-05-14T04:00:12.874Z,25.3
2023-05-14T04:05:42.356Z,25.3
2023-05-14T04:11:12.843Z,25.3
2023-05-14T04:16:42.494Z,25.3
2023-05-14T04:22:12.803Z,25.3
2023-05-14T04:27:43.275Z,25.3
2023-05-14T04:33:13.762Z,25.3
2023-05-14T04:38:44.396Z,25.3
2023-05-14T04:49:44.341Z,25.4
2023-05-14T04:55:13.808Z,25.4
2023-05-14T05:00:44.320Z,25.4
2023-05-14T05:06:14.795Z,25.4
2023-05-14T05:11:44.297Z,25.4
2023-05-14T05:17:14.753Z,25.4
2023-05-14T05:22:45.240Z,25.5
2023-05-14T05:28:14.711Z,25.5
2023-05-14T05:33:45.228Z,25.5
2023-05-14T05:39:15.711Z,25.5
2023-05-14T05:44:46.248Z,25.5
2023-05-14T05:50:15.773Z,25.5
2023-05-14T05:55:45.238Z,25.5
2023-05-14T06:01:15.763Z,25.6
2023-05-14T06:12:16.843Z,24.8
2023-05-14T06:17:47.292Z,24.4
2023-05-14T06:23:17.803Z,24.1
2023-05-14T06:28:47.232Z,23.9
2023-05-14T06:34:17.706Z,23.9
2023-05-14T06:39:48.287Z,24.1
2023-05-14T06:45:18.787Z,24.4
2023-05-14T06:50:49.283Z,24.6
2023-05-14T06:56:19.873Z,24.7
2023-05-14T07:01:50.474Z,24.8
2023-05-14T07:07:20.823Z,24.9
2023-05-14T07:12:50.302Z,25
2023-05-14T07:18:20.783Z,25.1
2023-05-14T07:23:50.309Z,25.2
2023-05-14T07:29:20.778Z,25.3
2023-05-14T07:34:51.240Z,25.4
2023-05-14T07:40:22.024Z,25.6
2023-05-14T07:45:52.341Z,25.7
2023-05-14T07:51:22.756Z,25.4
2023-05-14T07:56:53.509Z,25.2
2023-05-14T08:02:24.091Z,25
2023-05-14T08:07:54.510Z,24.9
2023-05-14T08:13:23.985Z,24.7
2023-05-14T08:18:54.532Z,24.7
2023-05-14T08:24:24.906Z,24.7
2023-05-14T08:29:55.527Z,25
2023-05-14T08:35:26.074Z,25.3
2023-05-14T08:40:55.578Z,25.6
2023-05-14T08:46:26.074Z,25.8
2023-05-14T08:51:56.536Z,25.9
2023-05-14T08:57:27.126Z,26
2023-05-14T09:08:28.060Z,26.2
2023-05-14T09:13:57.541Z,26.2
2023-05-14T09:24:58.502Z,26.3
2023-05-14T09:30:28.012Z,26.2
2023-05-14T09:35:58.495Z,26.2
2023-05-14T09:41:29.085Z,26.2
2023-05-14T09:46:59.584Z,26.2
2023-05-14T09:52:29.096Z,26.2
2023-05-14T09:57:59.565Z,26.3
2023-05-14T10:03:30.046Z,26.2
2023-05-14T10:08:59.570Z,26.2
2023-05-14T10:14:30.036Z,26.2
2023-05-14T10:20:00.523Z,26.2
2023-05-14T10:25:29.998Z,26.2
2023-05-14T10:31:00.626Z,26.2
2023-05-14T10:36:31.082Z,26.3
2023-05-14T10:42:01.712Z,26.4
2023-05-14T10:47:32.215Z,26.4
2023-05-14T10:53:02.796Z,26.4
2023-05-14T10:58:33.228Z,26.4
2023-05-14T11:04:03.839Z,26.3
2023-05-14T11:09:33.307Z,26.1
2023-05-14T11:15:03.848Z,25.8
2023-05-14T11:20:34.307Z,25.8
2023-05-14T11:26:04.894Z,25.8
2023-05-14T11:31:35.388Z,25.8
2023-05-14T11:37:04.849Z,25.8
2023-05-14T11:42:35.310Z,25.8
2023-05-14T11:48:05.881Z,25.8
2023-05-14T11:53:36.673Z,25.8
2023-05-14T11:59:07.022Z,25.7
2023-05-14T12:04:37.624Z,25.6
2023-05-14T12:10:08.029Z,25.7
2023-05-14T12:15:38.501Z,25.6
2023-05-14T12:21:09.090Z,25.5
2023-05-14T12:26:39.674Z,25.7
2023-05-14T12:32:10.145Z,25.9
2023-05-14T12:37:39.651Z,26.1
2023-05-14T12:43:10.162Z,26.3
2023-05-14T12:48:40.631Z,26.3
2023-05-14T12:54:10.126Z,26.3
2023-05-14T12:59:40.573Z,26.2
2023-05-14T13:05:11.036Z,26.1
2023-05-14T13:10:40.551Z,26.2
2023-05-14T13:16:11.054Z,26.3
2023-05-14T13:21:40.549Z,26.2
2023-05-14T13:27:11.126Z,26.4
2023-05-14T13:38:11.071Z,26.5
2023-05-14T13:43:41.584Z,26.6
2023-05-14T13:49:12.046Z,26.7
2023-05-14T13:54:41.531Z,26.7
2023-05-14T14:00:12.016Z,26.7
2023-05-14T14:05:42.627Z,26.7
2023-05-14T14:11:11.998Z,26.7
2023-05-14T14:16:42.568Z,26.7
2023-05-14T14:22:11.952Z,26.7
2023-05-14T14:27:42.429Z,26.7
2023-05-14T14:33:12.980Z,26.8
2023-05-14T14:44:12.896Z,26.8
2023-05-14T14:49:43.341Z,26.8
2023-05-14T14:55:13.790Z,26.8
2023-05-14T15:00:43.283Z,26.8
2023-05-14T15:06:13.759Z,26.8
2023-05-14T15:11:44.246Z,26.8
2023-05-14T15:17:13.745Z,26.8
2023-05-14T15:22:44.296Z,26.8
2023-05-14T15:28:14.680Z,26.8
2023-05-14T15:33:44.218Z,26.8
2023-05-14T15:39:14.643Z,26.8
2023-05-14T15:50:14.626Z,26.8
2023-05-14T15:55:45.087Z,26.7
2023-05-14T16:01:15.570Z,26.7
2023-05-14T16:06:45.035Z,26.7
2023-05-14T16:12:15.519Z,26.7
2023-05-14T16:17:46.015Z,26.7
2023-05-14T16:23:15.494Z,26.7
2023-05-14T16:28:45.966Z,26.7
2023-05-14T16:34:16.437Z,26.6
2023-05-14T16:39:45.905Z,26.7
2023-05-14T16:45:16.396Z,26.7
2023-05-14T16:50:46.860Z,26.6
2023-05-14T16:56:17.345Z,26.7
2023-05-14T17:07:16.427Z,26.6
2023-05-14T17:12:46.938Z,26.6
2023-05-14T17:18:16.426Z,26.6
2023-05-14T17:23:46.868Z,26.6
2023-05-14T17:29:17.340Z,26.6
2023-05-14T17:34:46.815Z,26.6
2023-05-14T17:40:17.283Z,26.6
2023-05-14T17:51:17.245Z,26.6
2023-05-14T17:56:47.718Z,26.6
2023-05-14T18:02:18.199Z,26.5
2023-05-14T18:07:47.710Z,26.5
2023-05-14T18:13:18.189Z,26.5
2023-05-14T18:18:48.709Z,26.5
2023-05-14T18:24:18.157Z,26.5
2023-05-14T18:29:48.638Z,26.5
2023-05-14T18:35:19.105Z,26.4
2023-05-14T18:40:48.618Z,26.4
2023-05-14T18:51:49.562Z,26.4
2023-05-14T18:57:19.065Z,26.4
2023-05-14T19:02:49.606Z,26.4
2023-05-14T19:08:20.033Z,26.3
2023-05-14T19:13:49.509Z,26.3
2023-05-14T19:19:19.985Z,26.3
2023-05-14T19:30:19.982Z,26.3
2023-05-14T19:35:50.421Z,26.2
2023-05-14T19:41:19.927Z,26.2
2023-05-14T19:46:50.414Z,26.2
2023-05-14T19:52:20.860Z,26.1
2023-05-14T19:57:51.339Z,26.1
2023-05-14T20:03:20.865Z,26.1
2023-05-14T20:08:51.313Z,26.1
2023-05-14T20:14:20.818Z,26.1
2023-05-14T20:19:51.279Z,26.1
2023-05-14T20:25:21.764Z,26.1
2023-05-14T20:30:51.314Z,26.1
2023-05-14T20:41:52.204Z,26
2023-05-14T20:47:21.723Z,26
2023-05-14T20:52:52.217Z,26
2023-05-14T20:58:22.715Z,26
2023-05-14T21:03:52.376Z,26
2023-05-14T21:09:22.653Z,26
2023-05-14T21:14:52.160Z,26
2023-05-14T21:20:22.630Z,25.9
2023-05-14T21:25:53.089Z,25.9
2023-05-14T21:31:22.621Z,25.9
2023-05-14T21:42:23.580Z,25.9
2023-05-14T21:47:53.072Z,25.9
2023-05-14T21:53:23.518Z,25.9
2023-05-14T21:58:54.012Z,25.8
2023-05-14T22:04:23.508Z,25.9
2023-05-14T22:09:53.950Z,25.8
2023-05-14T22:15:24.635Z,25.8
2023-05-14T22:20:53.914Z,25.9
2023-05-14T22:26:24.375Z,25.8
2023-05-14T22:31:54.986Z,25.8
2023-05-14T22:37:24.361Z,25.8
2023-05-14T22:42:54.831Z,25.8
2023-05-14T22:48:25.317Z,25.8
2023-05-14T22:53:54.813Z,25.8
2023-05-14T23:04:55.979Z,25.8
2023-05-14T23:10:26.249Z,25.8
2023-05-14T23:15:55.708Z,25.8
2023-05-14T23:21:26.170Z,25.8
2023-05-14T23:26:56.655Z,25.8
2023-05-14T23:32:26.181Z,25.8
2023-05-14T23:37:56.617Z,25.8
2023-05-14T23:43:27.119Z,25.8
2023-05-14T23:48:56.597Z,25.8
2023-05-14T23:54:27.062Z,25.7
2023-05-14T23:59:57.558Z,25.7
